Time;durP1;ratioP1;P1;durP2;ratioP2;P2;SDS_P1;SDS_P2;PMS_P1;PMS_P2;Temp;Humidity;BMP_temperature;BMP_pressure;BME280_temperature;BME280_humidity;BME280_pressure;Samples;Min_cycle;Max_cycle;Signal;HPM_P1;HPM_P2
2022/09/30 00:01:40;;;;;;;10.67;8.60;;;;;;;;;;5099065;28;20203;-81
2022/09/30 00:04:44;;;;;;;12.40;9.63;;;;;;;;;;5099006;28;20174;-81
2022/09/30 00:07:49;;;;;;;12.83;10.30;;;;;;;;;;5087491;28;20194;-81
2022/09/30 00:11:05;;;;;;;13.37;9.83;;;;;;;;;;5087523;28;20179;-81
2022/09/30 00:14:15;;;;;;;15.77;10.20;;;;;;;;;;5066717;28;20196;-81
2022/09/30 00:17:19;;;;;;;13.33;10.73;;;;;;;;;;5090062;28;20182;-81
2022/09/30 00:20:23;;;;;;;13.23;10.03;;;;;;;;;;5066874;28;20202;-81
2022/09/30 00:23:28;;;;;;;12.63;10.20;;;;;;;;;;5078895;28;20216;-82
2022/09/30 00:26:33;;;;;;;12.77;10.23;;;;;;;;;;5077489;28;20198;-81
2022/09/30 00:29:37;;;;;;;12.90;10.30;;;;;;;;;;5070685;28;20183;-81
2022/09/30 00:32:42;;;;;;;11.30;9.73;;;;;;;;;;5071525;28;20237;-81
2022/09/30 00:35:46;;;;;;;12.20;9.90;;;;;;;;;;5070464;28;20631;-80
2022/09/30 00:38:50;;;;;;;11.83;9.20;;;;;;;;;;5093385;28;20179;-81
2022/09/30 00:41:57;;;;;;;11.13;9.30;;;;;;;;;;5058964;28;20227;-81
2022/09/30 00:45:02;;;;;;;13.70;10.33;;;;;;;;;;5058637;28;20175;-81
2022/09/30 00:48:14;;;;;;;14.33;9.03;;;;;;;;;;5070776;28;20545;-81
2022/09/30 00:51:41;;;;;;;10.60;8.40;;;;;;;;;;5070943;28;20176;-81
2022/09/30 00:54:46;;;;;;;9.83;8.47;;;;;;;;;;5070495;28;20184;-81
2022/09/30 00:57:50;;;;;;;11.30;8.63;;;;;;;;;;5081851;28;20179;-80
2022/09/30 01:00:54;;;;;;;11.17;7.90;;;;;;;;;;5058511;28;20183;-82
2022/09/30 01:04:02;;;;;;;11.00;7.70;;;;;;;;;;5093378;28;20208;-81
2022/09/30 01:07:08;;;;;;;8.37;6.97;;;;;;;;;;5069957;28;20290;-81
2022/09/30 01:10:13;;;;;;;8.30;7.13;;;;;;;;;;5081332;28;20200;-81
2022/09/30 01:13:19;;;;;;;8.43;7.47;;;;;;;;;;5082888;28;20215;-81
2022/09/30 01:16:51;;;;;;;9.53;7.13;;;;;;;;;;5094825;28;20187;-81
2022/09/30 01:19:57;;;;;;;8.40;7.03;;;;;;;;;;5070939;28;20171;-81
2022/09/30 01:23:21;;;;;;;12.17;8.17;;;;;;;;;;5071137;28;20222;-81
2022/09/30 01:26:35;;;;;;;11.97;8.90;;;;;;;;;;5082372;28;20179;-81
2022/09/30 01:29:42;;;;;;;9.93;8.37;;;;;;;;;;5082411;28;20176;-81
2022/09/30 01:33:11;;;;;;;8.40;7.47;;;;;;;;;;5082004;28;20215;-80
2022/09/30 01:36:54;;;;;;;9.70;7.67;;;;;;;;;;5070372;28;20183;-81
2022/09/30 01:40:05;;;;;;;10.83;7.17;;;;;;;;;;5081151;28;20180;-81
2022/09/30 01:43:12;;;;;;;10.17;6.73;;;;;;;;;;5081064;28;20227;-81
2022/09/30 01:46:29;;;;;;;11.00;7.33;;;;;;;;;;5081350;28;20196;-81
2022/09/30 01:49:51;;;;;;;8.33;6.90;;;;;;;;;;5057771;28;20615;-81
2022/09/30 01:53:02;;;;;;;15.37;9.10;;;;;;;;;;5069298;28;20219;-81
2022/09/30 01:56:29;;;;;;;13.13;8.80;;;;;;;;;;5057971;28;20199;-81
2022/09/30 01:59:55;;;;;;;12.03;9.97;;;;;;;;;;5058165;28;20171;-81
2022/09/30 02:03:21;;;;;;;9.93;8.70;;;;;;;;;;5057477;28;20226;-81
2022/09/30 02:06:36;;;;;;;10.40;8.90;;;;;;;;;;5069171;28;20175;-81
2022/09/30 02:09:48;;;;;;;15.77;9.80;;;;;;;;;;5068285;28;20527;-81
2022/09/30 02:13:02;;;;;;;12.07;8.73;;;;;;;;;;5079811;28;20211;-81
2022/09/30 02:16:12;;;;;;;10.60;8.87;;;;;;;;;;5079248;28;20180;-81
2022/09/30 02:19:28;;;;;;;13.13;8.70;;;;;;;;;;5068779;28;20179;-81
2022/09/30 02:22:43;;;;;;;12.23;8.63;;;;;;;;;;5056435;28;20223;-81
2022/09/30 02:25:54;;;;;;;12.43;8.73;;;;;;;;;;5055969;28;20187;-80
2022/09/30 02:29:06;;;;;;;10.10;7.70;;;;;;;;;;5067018;28;20180;-81
2022/09/30 02:32:17;;;;;;;9.60;7.90;;;;;;;;;;5079424;28;20211;-81
2022/09/30 02:35:35;;;;;;;12.03;8.73;;;;;;;;;;5066079;28;20184;-81
2022/09/30 02:38:43;;;;;;;13.53;9.03;;;;;;;;;;5079141;28;20188;-81
2022/09/30 02:41:54;;;;;;;10.53;8.00;;;;;;;;;;5066627;28;20179;-81
2022/09/30 02:45:03;;;;;;;11.93;8.17;;;;;;;;;;5055475;28;20180;-81
2022/09/30 02:48:28;;;;;;;11.87;8.90;;;;;;;;;;5065670;28;20678;-81
2022/09/30 02:51:57;;;;;;;9.73;7.53;;;;;;;;;;5053590;28;20615;-80
2022/09/30 02:55:07;;;;;;;10.43;7.73;;;;;;;;;;5079155;28;20187;-81
2022/09/30 02:58:16;;;;;;;8.63;7.10;;;;;;;;;;5066483;28;20196;-81
2022/09/30 03:01:21;;;;;;;10.53;7.77;;;;;;;;;;5053408;28;20195;-80
2022/09/30 03:04:29;;;;;;;10.77;7.40;;;;;;;;;;5063992;28;20180;-80
2022/09/30 03:07:34;;;;;;;10.03;7.40;;;;;;;;;;5075979;28;20180;-81
2022/09/30 03:10:39;;;;;;;11.20;7.33;;;;;;;;;;5052086;28;20631;-80
2022/09/30 03:14:14;;;;;;;85.13;9.47;;;;;;;;;;5075083;28;20555;-81
2022/09/30 03:17:32;;;;;;;9.90;7.50;;;;;;;;;;5063507;28;20180;-80
2022/09/30 03:20:52;;;;;;;7.97;6.77;;;;;;;;;;5074825;28;20188;-80
2022/09/30 03:24:20;;;;;;;8.73;7.37;;;;;;;;;;5075809;28;20224;-80
2022/09/30 03:27:34;;;;;;;11.23;7.13;;;;;;;;;;5063959;28;20180;-81
2022/09/30 03:30:53;;;;;;;8.37;6.70;;;;;;;;;;5063944;28;20184;-80
2022/09/30 03:34:14;;;;;;;6.83;6.13;;;;;;;;;;5052133;28;20211;-80
2022/09/30 03:37:29;;;;;;;7.73;6.77;;;;;;;;;;5063808;28;20571;-80
2022/09/30 03:40:34;;;;;;;8.03;5.80;;;;;;;;;;5067124;28;20176;-81
2022/09/30 03:43:56;;;;;;;6.37;5.63;;;;;;;;;;5080016;28;20226;-81
2022/09/30 03:47:09;;;;;;;21.10;6.30;;;;;;;;;;5067009;28;20175;-81
2022/09/30 03:50:17;;;;;;;30.20;7.10;;;;;;;;;;5078132;28;20176;-81
2022/09/30 03:53:22;;;;;;;7.90;7.10;;;;;;;;;;5079265;28;20207;-80
2022/09/30 03:56:30;;;;;;;11.93;7.07;;;;;;;;;;5089750;28;20199;-81
2022/09/30 03:59:34;;;;;;;7.73;6.53;;;;;;;;;;5066664;28;20516;-81
2022/09/30 04:02:38;;;;;;;7.47;6.57;;;;;;;;;;5079436;28;20555;-80
2022/09/30 04:05:42;;;;;;;6.87;6.17;;;;;;;;;;5080524;28;20203;-81
2022/09/30 04:08:47;;;;;;;6.43;5.83;;;;;;;;;;5098631;28;20178;-81
2022/09/30 04:11:51;;;;;;;6.90;5.90;;;;;;;;;;5086792;28;20175;-81
2022/09/30 04:14:55;;;;;;;10.87;6.50;;;;;;;;;;5100207;28;20179;-81
2022/09/30 04:17:59;;;;;;;22.97;6.50;;;;;;;;;;5087046;28;20179;-80
2022/09/30 04:21:09;;;;;;;10.03;6.97;;;;;;;;;;5086692;28;20178;-81
2022/09/30 04:24:13;;;;;;;7.27;6.50;;;;;;;;;;5111558;28;20218;-81
2022/09/30 04:27:18;;;;;;;13.30;6.97;;;;;;;;;;5088255;28;20174;-80
2022/09/30 04:30:22;;;;;;;18.43;6.07;;;;;;;;;;5099115;28;20182;-82
2022/09/30 04:33:27;;;;;;;7.57;6.77;;;;;;;;;;5086360;28;20207;-81
2022/09/30 04:36:31;;;;;;;42.37;7.30;;;;;;;;;;5098088;28;20193;-81
2022/09/30 04:39:35;;;;;;;16.77;7.80;;;;;;;;;;5074080;28;20194;-81
2022/09/30 04:42:41;;;;;;;8.80;7.40;;;;;;;;;;5095682;28;20223;-81
2022/09/30 04:45:46;;;;;;;13.70;7.50;;;;;;;;;;5085598;28;20175;-81
2022/09/30 04:48:50;;;;;;;8.03;6.60;;;;;;;;;;5085839;28;20540;-81
2022/09/30 04:51:54;;;;;;;10.40;8.10;;;;;;;;;;5086485;28;20178;-81
2022/09/30 04:54:59;;;;;;;11.90;7.27;;;;;;;;;;5097842;28;20175;-81
2022/09/30 04:58:03;;;;;;;9.77;7.70;;;;;;;;;;5084837;28;20171;-80
2022/09/30 05:01:10;;;;;;;13.23;9.03;;;;;;;;;;5097802;28;20520;-81
2022/09/30 05:04:15;;;;;;;10.30;8.00;;;;;;;;;;5078814;28;20219;-81
2022/09/30 05:07:21;;;;;;;13.40;9.50;;;;;;;;;;5078821;28;20203;-80
2022/09/30 05:10:25;;;;;;;12.47;10.20;;;;;;;;;;5078525;28;20180;-81
2022/09/30 05:13:32;;;;;;;22.30;9.07;;;;;;;;;;5066446;28;20283;-81
2022/09/30 05:16:37;;;;;;;15.80;8.93;;;;;;;;;;5070846;28;20179;-81
2022/09/30 05:19:41;;;;;;;13.47;8.60;;;;;;;;;;5070459;28;20527;-82
2022/09/30 05:22:46;;;;;;;12.60;8.40;;;;;;;;;;5082781;28;20219;-81
2022/09/30 05:25:51;;;;;;;58.73;10.00;;;;;;;;;;5068611;28;20659;-81
2022/09/30 05:28:54;;;;;;;16.00;8.73;;;;;;;;;;5071486;28;20215;-81
2022/09/30 05:31:59;;;;;;;12.37;9.73;;;;;;;;;;5100818;28;20214;-81
2022/09/30 05:35:03;;;;;;;24.73;9.17;;;;;;;;;;5090527;28;20191;-81
2022/09/30 05:38:09;;;;;;;35.37;8.67;;;;;;;;;;5068385;28;20179;-82
2022/09/30 05:41:13;;;;;;;13.17;8.73;;;;;;;;;;5067466;28;20179;-80
2022/09/30 05:44:18;;;;;;;11.90;8.83;;;;;;;;;;5079349;28;20310;-81
2022/09/30 05:47:22;;;;;;;21.13;9.60;;;;;;;;;;5055988;28;20180;-81
2022/09/30 05:50:27;;;;;;;29.33;9.27;;;;;;;;;;5067547;28;20179;-81
2022/09/30 05:53:37;;;;;;;32.33;9.17;;;;;;;;;;5067470;28;20203;-80
2022/09/30 05:56:41;;;;;;;11.00;8.80;;;;;;;;;;5067839;28;20204;-82
2022/09/30 05:59:46;;;;;;;11.33;9.23;;;;;;;;;;5068048;28;20184;-81
2022/09/30 06:02:51;;;;;;;9.87;8.17;;;;;;;;;;5077765;28;20223;-81
2022/09/30 06:05:56;;;;;;;13.37;9.93;;;;;;;;;;5098937;28;20195;-81
2022/09/30 06:09:01;;;;;;;10.63;9.03;;;;;;;;;;5076522;28;20179;-81
2022/09/30 06:12:05;;;;;;;13.30;10.10;;;;;;;;;;5098580;28;20210;-81
2022/09/30 06:15:10;;;;;;;21.20;10.87;;;;;;;;;;5075790;28;20182;-81
2022/09/30 06:18:14;;;;;;;16.77;12.90;;;;;;;;;;5099753;28;20657;-81
2022/09/30 06:21:18;;;;;;;12.97;9.67;;;;;;;;;;5068282;28;20577;-82
2022/09/30 06:24:23;;;;;;;11.40;9.57;;;;;;;;;;5088294;28;20237;-81
2022/09/30 06:27:27;;;;;;;11.70;8.67;;;;;;;;;;5079747;28;20183;-81
2022/09/30 06:30:32;;;;;;;13.77;9.00;;;;;;;;;;5068184;28;20179;-81
2022/09/30 06:33:36;;;;;;;8.90;8.00;;;;;;;;;;5082773;28;20681;-81
2022/09/30 06:36:40;;;;;;;12.63;8.60;;;;;;;;;;5072411;28;20202;-80
2022/09/30 06:39:44;;;;;;;10.60;8.93;;;;;;;;;;5087984;28;20547;-80
2022/09/30 06:42:48;;;;;;;9.93;8.20;;;;;;;;;;5088074;28;20567;-81
2022/09/30 06:45:53;;;;;;;9.00;8.10;;;;;;;;;;5089875;28;20187;-82
2022/09/30 06:48:58;;;;;;;10.27;7.83;;;;;;;;;;5077486;28;20175;-81
2022/09/30 06:52:02;;;;;;;7.90;7.10;;;;;;;;;;5088679;28;20210;-82
2022/09/30 06:55:07;;;;;;;9.70;7.67;;;;;;;;;;5088693;28;20186;-82
2022/09/30 06:58:15;;;;;;;8.57;7.67;;;;;;;;;;5089439;28;20183;-82
2022/09/30 07:01:19;;;;;;;9.50;7.87;;;;;;;;;;5077876;28;20183;-82
2022/09/30 07:04:23;;;;;;;38.23;10.03;;;;;;;;;;5101131;28;20206;-82
2022/09/30 07:07:28;;;;;;;51.33;32.43;;;;;;;;;;5101545;28;20201;-82
2022/09/30 07:10:33;;;;;;;90.50;54.27;;;;;;;;;;5090764;28;20193;-82
2022/09/30 07:13:38;;;;;;;41.10;26.27;;;;;;;;;;5088847;28;20217;-82
2022/09/30 07:16:44;;;;;;;26.67;17.10;;;;;;;;;;5100025;28;20615;-82
2022/09/30 07:19:50;;;;;;;17.10;13.40;;;;;;;;;;5089051;28;20183;-81
2022/09/30 07:22:57;;;;;;;12.07;10.07;;;;;;;;;;5099864;28;20214;-81
2022/09/30 07:26:03;;;;;;;10.77;9.20;;;;;;;;;;5072909;28;20198;-81
2022/09/30 07:29:07;;;;;;;11.63;10.00;;;;;;;;;;5059582;28;20199;-81
2022/09/30 07:32:12;;;;;;;12.03;10.70;;;;;;;;;;5058377;28;20226;-82
2022/09/30 07:35:18;;;;;;;12.67;10.67;;;;;;;;;;5058751;28;20634;-81
2022/09/30 07:38:25;;;;;;;15.93;11.27;;;;;;;;;;5088636;28;20210;-82
2022/09/30 07:41:29;;;;;;;17.90;10.30;;;;;;;;;;5087399;28;20541;-82
2022/09/30 07:44:35;;;;;;;15.13;11.80;;;;;;;;;;5088070;28;20213;-82
2022/09/30 07:47:40;;;;;;;13.97;10.40;;;;;;;;;;5055113;28;20191;-81
2022/09/30 07:50:45;;;;;;;14.10;11.33;;;;;;;;;;5067074;28;20186;-81
2022/09/30 07:53:52;;;;;;;18.20;13.67;;;;;;;;;;5057671;28;20222;-82
2022/09/30 07:56:58;;;;;;;14.40;12.70;;;;;;;;;;5094817;28;20214;-82
2022/09/30 08:00:03;;;;;;;13.70;11.40;;;;;;;;;;5075848;28;20194;-81
2022/09/30 08:03:15;;;;;;;12.97;10.83;;;;;;;;;;5100268;28;20213;-82
2022/09/30 08:06:20;;;;;;;12.70;10.90;;;;;;;;;;5099637;28;20201;-81
2022/09/30 08:09:26;;;;;;;14.77;12.70;;;;;;;;;;5099771;28;20641;-82
2022/09/30 08:12:30;;;;;;;14.67;11.83;;;;;;;;;;5087034;28;20577;-82
2022/09/30 08:15:34;;;;;;;14.17;12.13;;;;;;;;;;5087857;28;20201;-83
2022/09/30 08:18:38;;;;;;;15.37;12.80;;;;;;;;;;5100398;28;20173;-82
2022/09/30 08:21:43;;;;;;;16.50;14.03;;;;;;;;;;5078057;28;20257;-82
2022/09/30 08:24:47;;;;;;;19.67;15.00;;;;;;;;;;5092721;28;20237;-82
2022/09/30 08:27:53;;;;;;;17.37;14.47;;;;;;;;;;5067402;28;20185;-82
2022/09/30 08:31:07;;;;;;;17.23;13.57;;;;;;;;;;5077993;28;20183;-81
2022/09/30 08:34:11;;;;;;;16.10;13.97;;;;;;;;;;5076219;28;20182;-82
2022/09/30 08:37:15;;;;;;;15.13;12.80;;;;;;;;;;5087531;28;20189;-81
2022/09/30 08:40:31;;;;;;;13.57;11.50;;;;;;;;;;5098416;28;20189;-81
2022/09/30 08:44:17;;;;;;;13.27;11.03;;;;;;;;;;5098737;28;20214;-82
2022/09/30 08:47:43;;;;;;;12.93;11.60;;;;;;;;;;5091385;28;20210;-81
2022/09/30 08:51:06;;;;;;;13.57;10.93;;;;;;;;;;5068300;28;20186;-80
2022/09/30 08:54:18;;;;;;;15.20;10.70;;;;;;;;;;5068842;28;20186;-81
2022/09/30 08:57:23;;;;;;;14.73;10.53;;;;;;;;;;5072139;28;20222;-82
2022/09/30 09:00:28;;;;;;;12.73;11.10;;;;;;;;;;5073783;28;20213;-81
2022/09/30 09:03:33;;;;;;;12.87;11.00;;;;;;;;;;5104128;28;20712;-81
2022/09/30 09:06:51;;;;;;;10.90;9.60;;;;;;;;;;5091335;28;20561;-82
2022/09/30 09:10:32;;;;;;;9.97;8.73;;;;;;;;;;5088756;28;20192;-81
2022/09/30 09:13:42;;;;;;;9.27;8.37;;;;;;;;;;5088082;28;20250;-82
2022/09/30 09:17:10;;;;;;;11.93;9.00;;;;;;;;;;5090304;28;20666;-82
2022/09/30 09:20:20;;;;;;;11.20;10.00;;;;;;;;;;5103483;28;20178;-82
2022/09/30 09:23:27;;;;;;;25.47;12.30;;;;;;;;;;5081966;28;20222;-82
2022/09/30 09:26:35;;;;;;;14.47;9.70;;;;;;;;;;5077915;28;20186;-82
2022/09/30 09:30:06;;;;;;;11.37;9.27;;;;;;;;;;5070329;28;20691;-82
2022/09/30 09:33:25;;;;;;;13.13;10.13;;;;;;;;;;5093934;28;20310;-84
2022/09/30 09:36:47;;;;;;;10.90;9.53;;;;;;;;;;5097999;28;20197;-82
2022/09/30 09:40:17;;;;;;;16.30;10.77;;;;;;;;;;5077826;28;20179;-82
2022/09/30 09:43:29;;;;;;;12.93;10.03;;;;;;;;;;5072290;28;20244;-81
2022/09/30 09:46:43;;;;;;;12.17;9.57;;;;;;;;;;5099424;28;20194;-82
2022/09/30 09:49:57;;;;;;;10.00;9.00;;;;;;;;;;5079162;28;20185;-82
2022/09/30 09:53:15;;;;;;;10.73;9.27;;;;;;;;;;5079461;28;20222;-82
2022/09/30 09:56:21;;;;;;;10.70;9.57;;;;;;;;;;5077396;28;20566;-81
2022/09/30 09:59:25;;;;;;;11.63;8.80;;;;;;;;;;5080406;28;20207;-82
2022/09/30 10:02:30;;;;;;;10.37;8.10;;;;;;;;;;5073830;28;20579;-82
2022/09/30 10:05:41;;;;;;;11.43;8.53;;;;;;;;;;5093008;28;20210;-82
2022/09/30 10:08:54;;;;;;;9.43;8.43;;;;;;;;;;5073485;28;20194;-81
2022/09/30 10:12:25;;;;;;;8.77;7.87;;;;;;;;;;5097052;28;20218;-82
2022/09/30 10:15:29;;;;;;;9.67;8.20;;;;;;;;;;5074898;28;20171;-81
2022/09/30 10:18:37;;;;;;;10.27;7.97;;;;;;;;;;5076212;28;20211;-80
2022/09/30 10:21:41;;;;;;;9.90;8.90;;;;;;;;;;5064888;28;20186;-81
2022/09/30 10:24:45;;;;;;;10.63;8.20;;;;;;;;;;5076885;28;20207;-81
2022/09/30 10:27:59;;;;;;;9.40;8.13;;;;;;;;;;5053242;28;20634;-82
2022/09/30 10:31:13;;;;;;;8.17;7.27;;;;;;;;;;5076345;28;20172;-81
2022/09/30 10:34:27;;;;;;;9.27;7.33;;;;;;;;;;5077087;28;20188;-81
2022/09/30 10:37:31;;;;;;;10.87;7.40;;;;;;;;;;5076196;28;20187;-81
2022/09/30 10:40:34;;;;;;;10.63;8.10;;;;;;;;;;5075841;28;20192;-80
2022/09/30 10:43:44;;;;;;;9.43;7.50;;;;;;;;;;5063807;28;20222;-81
2022/09/30 10:46:52;;;;;;;8.63;7.60;;;;;;;;;;5075152;28;20176;-80
2022/09/30 10:50:10;;;;;;;8.47;7.20;;;;;;;;;;5063500;28;20184;-81
2022/09/30 10:53:22;;;;;;;8.63;6.23;;;;;;;;;;5064161;28;20220;-82
2022/09/30 10:56:33;;;;;;;7.43;6.63;;;;;;;;;;5074975;28;20195;-81
2022/09/30 10:59:39;;;;;;;9.03;6.57;;;;;;;;;;5075233;28;20623;-80
2022/09/30 11:03:06;;;;;;;11.07;6.40;;;;;;;;;;5086819;28;20211;-80
2022/09/30 11:06:13;;;;;;;10.10;7.13;;;;;;;;;;5076528;28;20211;-80
2022/09/30 11:10:07;;;;;;;9.13;6.90;;;;;;;;;;5052048;28;20198;-80
2022/09/30 11:13:39;;;;;;;8.43;5.73;;;;;;;;;;5021622;28;20683;-80
2022/09/30 11:17:02;;;;;;;7.87;7.17;;;;;;;;;;5021623;28;20199;-81
2022/09/30 11:20:21;;;;;;;9.00;8.00;;;;;;;;;;5063617;28;20188;-80
2022/09/30 11:23:39;;;;;;;7.33;6.57;;;;;;;;;;5086597;28;20215;-81
2022/09/30 11:26:51;;;;;;;7.23;5.77;;;;;;;;;;5075665;28;20180;-81
2022/09/30 11:30:10;;;;;;;9.10;5.60;;;;;;;;;;5086355;28;20188;-80
2022/09/30 11:33:36;;;;;;;7.90;5.23;;;;;;;;;;5063311;28;20667;-81
2022/09/30 11:37:04;;;;;;;9.97;5.60;;;;;;;;;;5063509;28;20180;-82
2022/09/30 11:40:29;;;;;;;6.43;5.07;;;;;;;;;;5074849;28;20183;-81
2022/09/30 11:43:50;;;;;;;5.87;5.27;;;;;;;;;;5076120;28;20203;-82
2022/09/30 11:47:32;;;;;;;6.23;5.63;;;;;;;;;;5087365;28;20183;-81
2022/09/30 11:51:04;;;;;;;6.47;4.87;;;;;;;;;;5064638;28;20188;-81
2022/09/30 11:54:23;;;;;;;6.10;5.40;;;;;;;;;;5052286;28;20180;-81
2022/09/30 11:57:36;;;;;;;5.33;4.53;;;;;;;;;;5051531;28;20199;-81
2022/09/30 12:00:46;;;;;;;5.73;4.93;;;;;;;;;;5074642;28;20179;-81
2022/09/30 12:04:04;;;;;;;5.43;4.90;;;;;;;;;;5074571;28;20207;-81
2022/09/30 12:07:21;;;;;;;5.13;4.30;;;;;;;;;;5075652;28;20168;-82
2022/09/30 12:10:33;;;;;;;5.10;4.60;;;;;;;;;;5075368;28;20188;-82
2022/09/30 12:13:42;;;;;;;4.87;3.80;;;;;;;;;;5052132;28;20218;-81
2022/09/30 12:16:47;;;;;;;4.77;4.20;;;;;;;;;;5063389;28;20655;-81
2022/09/30 12:19:55;;;;;;;8.40;4.70;;;;;;;;;;5065725;28;20183;-82
2022/09/30 12:23:10;;;;;;;5.90;3.87;;;;;;;;;;5066743;28;20211;-82
2022/09/30 12:26:15;;;;;;;8.30;4.10;;;;;;;;;;5058355;28;20211;-82
2022/09/30 12:33:01;;;;;;;5.53;3.67;;;;;;;;;;5079212;28;20575;-81
2022/09/30 12:36:16;;;;;;;9.47;5.00;;;;;;;;;;5067290;28;20168;-82
2022/09/30 12:39:36;;;;;;;5.47;4.50;;;;;;;;;;5057391;28;20175;-82
2022/09/30 12:43:04;;;;;;;6.17;4.13;;;;;;;;;;5056914;28;20214;-81
2022/09/30 12:46:58;;;;;;;4.30;3.27;;;;;;;;;;5079316;28;20215;-81
2022/09/30 12:50:06;;;;;;;11.70;8.23;;;;;;;;;;5031509;28;20204;-82
2022/09/30 12:53:22;;;;;;;6.87;5.20;;;;;;;;;;5080522;28;20566;-81
2022/09/30 12:56:28;;;;;;;4.93;4.33;;;;;;;;;;5066707;28;20203;-81
2022/09/30 12:59:37;;;;;;;4.53;3.17;;;;;;;;;;5079009;28;20195;-81
2022/09/30 13:02:45;;;;;;;3.70;2.97;;;;;;;;;;5065919;28;20555;-81
2022/09/30 13:05:55;;;;;;;3.83;3.30;;;;;;;;;;5089771;28;20207;-81
2022/09/30 13:09:15;;;;;;;15.83;4.03;;;;;;;;;;5078252;28;20176;-81
2022/09/30 13:12:39;;;;;;;5.63;2.93;;;;;;;;;;5078857;28;20222;-81
2022/09/30 13:15:45;;;;;;;3.60;3.30;;;;;;;;;;5090933;28;20172;-81
2022/09/30 13:18:52;;;;;;;3.93;3.07;;;;;;;;;;5078769;28;20187;-81
2022/09/30 13:22:18;;;;;;;5.67;4.00;;;;;;;;;;5055589;28;20634;-81
2022/09/30 13:25:23;;;;;;;5.10;3.13;;;;;;;;;;5067671;28;20208;-81
2022/09/30 13:28:37;;;;;;;6.77;5.63;;;;;;;;;;5087157;28;20175;-81
2022/09/30 13:31:44;;;;;;;6.80;3.70;;;;;;;;;;5086538;28;20638;-81
2022/09/30 13:34:54;;;;;;;4.63;4.10;;;;;;;;;;5085308;28;20179;-81
2022/09/30 13:38:10;;;;;;;3.40;3.00;;;;;;;;;;5097797;28;20179;-81
2022/09/30 13:41:23;;;;;;;3.57;2.97;;;;;;;;;;5074886;28;20171;-81
2022/09/30 13:44:48;;;;;;;3.00;2.70;;;;;;;;;;5087337;28;20179;-81
2022/09/30 13:48:12;;;;;;;3.77;3.03;;;;;;;;;;5086464;28;20507;-81
2022/09/30 13:51:20;;;;;;;3.83;2.57;;;;;;;;;;5086647;28;20179;-81
2022/09/30 13:54:31;;;;;;;4.23;2.03;;;;;;;;;;5098488;28;20203;-81
2022/09/30 13:58:01;;;;;;;3.77;2.37;;;;;;;;;;5097851;28;20172;-81
2022/09/30 14:01:25;;;;;;;1.80;1.70;;;;;;;;;;5086655;28;20183;-81
2022/09/30 14:04:39;;;;;;;3.07;1.80;;;;;;;;;;5098656;28;20175;-81
2022/09/30 14:08:18;;;;;;;1.40;1.30;;;;;;;;;;5097968;28;20183;-82
2022/09/30 14:11:31;;;;;;;5.00;2.47;;;;;;;;;;5086038;28;20179;-81
2022/09/30 14:15:05;;;;;;;4.13;1.70;;;;;;;;;;5085725;28;20187;-82
2022/09/30 14:18:27;;;;;;;3.23;1.63;;;;;;;;;;5097005;28;20171;-81
2022/09/30 14:21:44;;;;;;;2.77;1.67;;;;;;;;;;5074421;28;20182;-81
2022/09/30 14:24:49;;;;;;;2.20;1.33;;;;;;;;;;5097494;28;20195;-81
2022/09/30 14:28:05;;;;;;;2.23;1.47;;;;;;;;;;5085986;28;20183;-82
2022/09/30 14:31:15;;;;;;;2.20;1.30;;;;;;;;;;5097202;28;20179;-81
2022/09/30 14:34:22;;;;;;;2.40;1.53;;;;;;;;;;5097887;28;20526;-81
2022/09/30 14:37:32;;;;;;;7.27;1.60;;;;;;;;;;5096837;28;20186;-81
2022/09/30 14:40:39;;;;;;;8.53;1.20;;;;;;;;;;5097675;28;20183;-81
2022/09/30 14:43:45;;;;;;;3.90;1.50;;;;;;;;;;5096278;28;20210;-81
2022/09/30 14:46:50;;;;;;;1.53;1.30;;;;;;;;;;5097459;28;20203;-81
2022/09/30 14:49:56;;;;;;;3.70;1.10;;;;;;;;;;5085160;28;20183;-81
2022/09/30 14:53:02;;;;;;;1.97;1.30;;;;;;;;;;5072967;28;20563;-82
2022/09/30 14:56:27;;;;;;;2.97;1.20;;;;;;;;;;5084577;28;20207;-81
2022/09/30 14:59:33;;;;;;;6.90;1.47;;;;;;;;;;5096335;28;20183;-81
2022/09/30 15:02:43;;;;;;;2.90;1.30;;;;;;;;;;5095672;28;20219;-81
2022/09/30 15:05:47;;;;;;;3.60;1.53;;;;;;;;;;5084054;28;20650;-82
2022/09/30 15:09:00;;;;;;;2.13;1.53;;;;;;;;;;5095872;28;20634;-81
2022/09/30 15:12:10;;;;;;;2.53;1.30;;;;;;;;;;5096410;28;20210;-81
2022/09/30 15:15:25;;;;;;;2.90;1.20;;;;;;;;;;5084451;28;20183;-82
2022/09/30 15:18:42;;;;;;;1.30;1.07;;;;;;;;;;5095891;28;20183;-81
2022/09/30 15:21:50;;;;;;;1.80;1.00;;;;;;;;;;5095462;28;20539;-81
2022/09/30 15:24:56;;;;;;;1.73;1.10;;;;;;;;;;5084006;28;20179;-81
2022/09/30 15:28:02;;;;;;;1.23;0.90;;;;;;;;;;5083707;28;20179;-82
2022/09/30 15:31:23;;;;;;;3.43;1.00;;;;;;;;;;5083799;28;20179;-81
2022/09/30 15:34:29;;;;;;;0.93;0.80;;;;;;;;;;5072484;28;20187;-82
2022/09/30 15:37:33;;;;;;;1.33;1.20;;;;;;;;;;5084058;28;20166;-81
2022/09/30 15:40:48;;;;;;;19.97;1.93;;;;;;;;;;5096167;28;20511;-81
2022/09/30 15:43:53;;;;;;;5.97;1.33;;;;;;;;;;5096181;28;20218;-81
2022/09/30 15:47:07;;;;;;;6.73;1.40;;;;;;;;;;5095002;28;20207;-81
2022/09/30 15:50:43;;;;;;;3.07;1.03;;;;;;;;;;5071644;28;20191;-81
2022/09/30 15:53:48;;;;;;;3.07;1.10;;;;;;;;;;5095093;28;20543;-80
2022/09/30 15:56:53;;;;;;;5.50;1.80;;;;;;;;;;5094770;28;20203;-81
2022/09/30 16:00:00;;;;;;;3.43;2.40;;;;;;;;;;5097217;28;20178;-80
2022/09/30 16:03:29;;;;;;;6.03;3.40;;;;;;;;;;5084815;28;20218;-80
2022/09/30 16:06:42;;;;;;;5.53;3.30;;;;;;;;;;5095822;28;20210;-79
2022/09/30 16:09:47;;;;;;;4.87;3.03;;;;;;;;;;5097476;28;20191;-80
2022/09/30 16:12:51;;;;;;;4.23;3.10;;;;;;;;;;5085470;28;20214;-79
2022/09/30 16:15:57;;;;;;;6.07;4.07;;;;;;;;;;5098036;28;20183;-79
2022/09/30 16:19:02;;;;;;;5.53;4.30;;;;;;;;;;5072420;28;20630;-79
2022/09/30 16:22:38;;;;;;;7.60;4.07;;;;;;;;;;5085132;28;20214;-80
2022/09/30 16:25:43;;;;;;;3.40;2.97;;;;;;;;;;5083171;28;20546;-80
2022/09/30 16:28:47;;;;;;;5.50;4.10;;;;;;;;;;5096127;28;20179;-79
2022/09/30 16:31:55;;;;;;;10.93;6.67;;;;;;;;;;5095374;28;20171;-80
2022/09/30 16:34:59;;;;;;;11.93;6.20;;;;;;;;;;5095694;28;20184;-80
2022/09/30 16:38:05;;;;;;;7.43;5.10;;;;;;;;;;5095850;28;20540;-79
2022/09/30 16:41:11;;;;;;;8.03;4.30;;;;;;;;;;5095917;28;20179;-80
2022/09/30 16:44:15;;;;;;;10.83;5.50;;;;;;;;;;5084867;28;20182;-79
2022/09/30 16:47:20;;;;;;;8.63;6.53;;;;;;;;;;5084409;28;20229;-79
2022/09/30 16:50:36;;;;;;;9.60;6.30;;;;;;;;;;5096762;28;20170;-79
2022/09/30 16:53:40;;;;;;;9.53;6.60;;;;;;;;;;5097718;28;20559;-79
2022/09/30 16:56:44;;;;;;;14.87;6.60;;;;;;;;;;5085424;28;20194;-80
2022/09/30 16:59:49;;;;;;;18.67;10.80;;;;;;;;;;5097384;28;20195;-78
2022/09/30 17:02:53;;;;;;;14.50;11.00;;;;;;;;;;5084332;28;20217;-80
2022/09/30 17:05:58;;;;;;;13.57;9.33;;;;;;;;;;5099069;28;20548;-80
2022/09/30 17:09:03;;;;;;;14.87;9.83;;;;;;;;;;5101561;28;20635;-79
2022/09/30 17:12:11;;;;;;;10.97;8.33;;;;;;;;;;5091392;28;20229;-79
2022/09/30 17:15:17;;;;;;;10.47;7.57;;;;;;;;;;5090429;28;20194;-80
2022/09/30 17:18:22;;;;;;;9.30;8.00;;;;;;;;;;5102887;28;20178;-79
2022/09/30 17:21:27;;;;;;;10.37;9.20;;;;;;;;;;5102955;28;20556;-80
2022/09/30 17:24:31;;;;;;;12.67;9.50;;;;;;;;;;5091250;28;20182;-79
2022/09/30 17:27:36;;;;;;;10.00;5.77;;;;;;;;;;5103380;28;20225;-81
2022/09/30 17:30:43;;;;;;;9.50;4.93;;;;;;;;;;5076815;28;20192;-81
2022/09/30 17:33:47;;;;;;;8.70;5.37;;;;;;;;;;5075907;28;20222;-81
2022/09/30 17:36:52;;;;;;;8.40;5.97;;;;;;;;;;5097941;28;20179;-79
2022/09/30 17:39:57;;;;;;;7.33;5.40;;;;;;;;;;5097627;28;20187;-79
2022/09/30 17:43:07;;;;;;;14.70;7.10;;;;;;;;;;5097391;28;20214;-80
2022/09/30 17:46:17;;;;;;;7.57;6.57;;;;;;;;;;5097846;28;20319;-80
2022/09/30 17:49:22;;;;;;;8.07;6.03;;;;;;;;;;5098957;28;20175;-80
2022/09/30 17:52:26;;;;;;;6.47;5.37;;;;;;;;;;5109641;28;20218;-79
2022/09/30 17:55:32;;;;;;;5.67;5.07;;;;;;;;;;5097540;28;20198;-79
2022/09/30 17:58:37;;;;;;;5.57;5.00;;;;;;;;;;5085590;28;20519;-80
2022/09/30 18:01:41;;;;;;;6.80;4.87;;;;;;;;;;5097476;28;20179;-79
2022/09/30 18:04:46;;;;;;;5.20;4.67;;;;;;;;;;5086507;28;20183;-79
2022/09/30 18:07:51;;;;;;;5.33;4.50;;;;;;;;;;5111421;28;20203;-79
2022/09/30 18:10:56;;;;;;;8.33;5.10;;;;;;;;;;5098328;28;20179;-78
2022/09/30 18:14:00;;;;;;;5.70;4.70;;;;;;;;;;5097792;28;20218;-79
2022/09/30 18:17:05;;;;;;;5.03;4.50;;;;;;;;;;5099273;28;20658;-79
2022/09/30 18:20:11;;;;;;;8.20;4.63;;;;;;;;;;5085982;28;20520;-79
2022/09/30 18:23:17;;;;;;;3.73;3.43;;;;;;;;;;5098398;28;20206;-80
2022/09/30 18:26:23;;;;;;;4.40;4.00;;;;;;;;;;5098456;28;20179;-80
2022/09/30 18:29:28;;;;;;;4.60;3.83;;;;;;;;;;5096203;28;20187;-78
2022/09/30 18:32:33;;;;;;;6.07;4.47;;;;;;;;;;5098210;28;20550;-80
2022/09/30 18:35:38;;;;;;;4.20;3.80;;;;;;;;;;5086140;28;20183;-80
2022/09/30 18:38:42;;;;;;;4.83;4.20;;;;;;;;;;5097200;28;20170;-79
2022/09/30 18:41:47;;;;;;;6.30;4.13;;;;;;;;;;5108387;28;20193;-79
2022/09/30 18:44:52;;;;;;;6.70;3.70;;;;;;;;;;5109324;28;20191;-79
2022/09/30 18:47:58;;;;;;;5.17;3.83;;;;;;;;;;5099409;28;20203;-80
2022/09/30 18:51:03;;;;;;;5.43;4.07;;;;;;;;;;5097490;28;20175;-79
2022/09/30 18:54:07;;;;;;;7.57;3.90;;;;;;;;;;5096899;28;20182;-81